Dades meteomassalio
Diari Summary for Febrer 23, 2017 Units:  English    Metric   Both
« Previous Day
Next Day »
Diari Semanal Mensual Anual Personalitzat
  Maxima: Minima: Mijana:
Temperatura: TemperatureC °F 5.1 °F 9.1 °F
Rosada: DewpointC °F 3.8 °F 6.4 °F
Humitat: Humidity % 62 % 84 %
Velocitat del vent: WindSpeedKMH mph 0.0 mph 1.1 mph
Racha vent: WindSpeedGustKMH mph - -
Vent:- - ENE
Pressio: PressurehPa in 1014.1 in -
Pluja: 0.0 in    
Historical Graphs
 
 
Tabular Data for Febrer 23, 2017
Time Temperature Dew Point Pressure Wind Wind Speed Wind Gust Humidity Rainfall Rate (Hourly) solar Conditions
TemperatureC °F DewpointC °F PressurehPa in Calm     Humidity % HourlyPrecipMM in SolarRadiationWatts/m^2 W/m2 Conditions
00:04 6.3 °F 4.5 °F 1021.2 in Calm     88 % 0.0 in 0.0 W/m2 RA
00:09 6.3 °F 4.5 °F 1021.2 in SSW 3.7 mph   88 % 0.0 in 0.0 W/m2 CLR
00:14 6.3 °F 4.5 °F 1021.2 in Calm     88 % 0.0 in 0.0 W/m2 CLR
00:19 6.3 °F 4.5 °F 1021.2 in Calm     88 % 0.0 in 0.0 W/m2 CLR
00:24 6.3 °F 4.4 °F 1020.9 in Calm     88 % 0.0 in 0.0 W/m2 CLR
00:29 6.2 °F 4.4 °F 1020.9 in Calm     88 % 0.0 in 0.0 W/m2 CLR
00:34 6.3 °F 4.5 °F 1021.2 in SW 3.2 mph 3.2 mph 88 % 0.0 in 0.0 W/m2 CLR
00:39 6.3 °F 4.5 °F 1020.9 in Calm     88 % 0.0 in 0.0 W/m2 CLR
00:44 6.3 °F 4.5 °F 1021.2 in Calm     88 % 0.0 in 0.0 W/m2 CLR
00:49 6.2 °F 4.4 °F 1020.9 in Calm     88 % 0.0 in 0.0 W/m2 CLR
00:54 6.1 °F 4.2 °F 1020.9 in Calm     88 % 0.0 in 0.0 W/m2 CLR
00:59 6.1 °F 4.4 °F 1020.9 in WSW 5.6 mph 5.6 mph 89 % 0.0 in 0.0 W/m2 CLR
01:04 6.1 °F 4.4 °F 1020.9 in Calm     89 % 0.0 in 0.0 W/m2 CLR
01:09 6.1 °F 4.4 °F 1020.9 in Calm     89 % 0.0 in 0.0 W/m2 CLR
01:14 6.1 °F 4.3 °F 1020.9 in Calm     88 % 0.0 in 0.0 W/m2 CLR
01:19 6.1 °F 4.4 °F 1020.9 in Calm     89 % 0.0 in 0.0 W/m2 CLR
01:24 6.1 °F 4.4 °F 1020.9 in Calm     89 % 0.0 in 0.0 W/m2 CLR
01:29 6.1 °F 4.4 °F 1020.9 in Calm     89 % 0.0 in 0.0 W/m2 CLR
01:34 6.1 °F 4.4 °F 1020.9 in Calm     89 % 0.0 in 0.0 W/m2 CLR
01:39 6.0 °F 4.2 °F 1020.9 in Calm     88 % 0.0 in 0.0 W/m2 CLR
01:44 5.9 °F 4.2 °F 1020.9 in Calm     89 % 0.0 in 0.0 W/m2 CLR
01:49 5.8 °F 4.2 °F 1020.9 in Calm     89 % 0.0 in 0.0 W/m2 CLR
01:54 5.8 °F 4.1 °F 1020.9 in Calm     89 % 0.0 in 0.0 W/m2 CLR
01:59 5.8 °F 4.1 °F 1020.9 in Calm     89 % 0.0 in 0.0 W/m2 CLR
02:04 5.8 °F 4.3 °F 1020.9 in Calm     90 % 0.0 in 0.0 W/m2 CLR
02:09 5.8 °F 4.3 °F 1020.5 in Calm     90 % 0.0 in 0.0 W/m2 CLR
02:15 5.8 °F 4.3 °F 1020.5 in Calm     90 % 0.0 in 0.0 W/m2 CLR
02:20 5.8 °F 4.3 °F 1020.5 in Calm     90 % 0.0 in 0.0 W/m2 CLR
02:25 5.7 °F 4.2 °F 1020.5 in Calm     90 % 0.0 in 0.0 W/m2 CLR
02:30 5.7 °F 4.2 °F 1020.5 in Calm     90 % 0.0 in 0.0 W/m2 CLR
02:35 5.7 °F 4.2 °F 1020.5 in Calm     90 % 0.0 in 0.0 W/m2 CLR
02:40 5.6 °F 4.1 °F 1020.5 in Calm     90 % 0.0 in 0.0 W/m2 CLR
02:45 5.6 °F 4.1 °F 1020.5 in Calm     90 % 0.0 in 0.0 W/m2 CLR
02:50 5.6 °F 4.1 °F 1020.5 in Calm     90 % 0.0 in 0.0 W/m2 CLR
02:55 5.6 °F 4.1 °F 1020.5 in Calm     90 % 0.0 in 0.0 W/m2 CLR
03:00 5.4 °F 3.9 °F 1020.2 in Calm     90 % 0.0 in 0.0 W/m2 CLR
03:05 5.4 °F 3.9 °F 1020.2 in Calm     90 % 0.0 in 0.0 W/m2 CLR
03:10 5.3 °F 3.8 °F 1020.2 in Calm     90 % 0.0 in 0.0 W/m2 CLR
03:15 5.3 °F 3.8 °F 1020.2 in Calm     90 % 0.0 in 0.0 W/m2 CLR
03:20 5.3 °F 3.8 °F 1020.2 in Calm     90 % 0.0 in 0.0 W/m2 CLR
03:25 5.3 °F 4.0 °F 1019.9 in Calm     91 % 0.0 in 0.0 W/m2 CLR
03:30 5.3 °F 4.0 °F 1019.9 in Calm     91 % 0.0 in 0.0 W/m2 CLR
03:35 5.3 °F 4.0 °F 1019.9 in Calm     91 % 0.0 in 0.0 W/m2 CLR
03:40 5.4 °F 4.1 °F 1019.9 in Calm     91 % 0.0 in 0.0 W/m2 CLR
03:45 5.3 °F 3.9 °F 1019.9 in Calm     91 % 0.0 in 0.0 W/m2 CLR
03:50 5.3 °F 3.9 °F 1019.5 in Calm     91 % 0.0 in 0.0 W/m2 CLR
03:55 5.4 °F 4.1 °F 1019.5 in Calm     91 % 0.0 in 0.0 W/m2 CLR
04:00 5.4 °F 4.1 °F 1019.5 in Calm     91 % 0.0 in 0.0 W/m2 CLR
04:05 5.4 °F 4.1 °F 1019.5 in Calm     91 % 0.0 in 0.0 W/m2 CLR
04:10 5.3 °F 4.0 °F 1019.5 in Calm     91 % 0.0 in 0.0 W/m2 CLR
04:15 5.3 °F 3.9 °F 1019.5 in Calm     91 % 0.0 in 0.0 W/m2 CLR
04:20 5.3 °F 3.9 °F 1019.5 in Calm     91 % 0.0 in 0.0 W/m2 CLR
04:25 5.3 °F 4.0 °F 1019.5 in Calm     91 % 0.0 in 0.0 W/m2 CLR
04:30 5.3 °F 3.9 °F 1019.5 in Calm     91 % 0.0 in 0.0 W/m2 CLR
04:31 5.3 °F 3.9 °F 1019.5 in Calm     91 % 0.0 in 0.0 W/m2 CLR
04:36 5.2 °F 3.9 °F 1019.5 in Calm     91 % 0.0 in 0.0 W/m2 CLR
04:41 5.1 °F 3.8 °F 1019.5 in Calm     91 % 0.0 in 0.0 W/m2 CLR
04:46 5.1 °F 3.8 °F 1019.2 in Calm     91 % 0.0 in 0.0 W/m2 CLR
04:51 5.2 °F 4.1 °F 1019.2 in Calm     92 % 0.0 in 0.0 W/m2 CLR
04:56 5.3 °F 4.1 °F 1019.2 in South 1.9 mph 1.9 mph 92 % 0.0 in 0.0 W/m2 CLR
05:01 5.3 °F 3.9 °F 1019.2 in Calm     91 % 0.0 in 0.0 W/m2 CLR
05:06 5.3 °F 4.1 °F 1019.2 in Calm     92 % 0.0 in 0.0 W/m2 CLR
05:11 5.3 °F 4.1 °F 1019.2 in Calm     92 % 0.0 in 0.0 W/m2 CLR
05:16 5.3 °F 4.1 °F 1019.2 in Calm     92 % 0.0 in 0.0 W/m2 CLR
05:21 5.3 °F 4.1 °F 1019.2 in Calm     92 % 0.0 in 0.0 W/m2 CLR
05:26 5.2 °F 4.1 °F 1019.2 in Calm     92 % 0.0 in 0.0 W/m2 CLR
05:31 5.2 °F 4.1 °F 1019.2 in Calm     92 % 0.0 in 0.0 W/m2 CLR
05:36 5.2 °F 4.1 °F 1019.5 in Calm     92 % 0.0 in 0.0 W/m2 CLR
05:41 5.3 °F 4.1 °F 1019.2 in Calm     92 % 0.0 in 0.0 W/m2 CLR
05:46 5.3 °F 4.1 °F 1019.2 in Calm     92 % 0.0 in 0.0 W/m2 CLR
05:51 5.3 °F 4.1 °F 1019.2 in Calm     92 % 0.0 in 0.0 W/m2 CLR
05:56 5.3 °F 4.1 °F 1019.2 in Calm     92 % 0.0 in 0.0 W/m2 CLR
06:01 5.2 °F 4.1 °F 1019.2 in Calm     92 % 0.0 in 0.0 W/m2 CLR
06:06 5.2 °F 4.1 °F 1019.2 in Calm     92 % 0.0 in 0.0 W/m2 CLR
06:11 5.2 °F 4.1 °F 1019.2 in Calm     92 % 0.0 in 0.0 W/m2 CLR
06:16 5.3 °F 4.1 °F 1019.2 in Calm     92 % 0.0 in 0.0 W/m2 CLR
06:21 5.3 °F 4.1 °F 1019.2 in Calm     92 % 0.0 in 0.0 W/m2 CLR
06:26 5.3 °F 4.1 °F 1019.2 in Calm     92 % 0.0 in 0.0 W/m2 CLR
06:31 5.3 °F 4.1 °F 1019.2 in Calm     92 % 0.0 in 0.0 W/m2 CLR
06:36 5.2 °F 4.1 °F 1019.2 in Calm     92 % 0.0 in 0.0 W/m2 CLR
06:41 5.2 °F 4.1 °F 1019.2 in Calm     92 % 0.0 in 0.0 W/m2 CLR
06:46 5.3 °F 4.1 °F 1019.2 in Calm     92 % 0.0 in 0.0 W/m2 CLR
06:51 5.3 °F 4.1 °F 1019.2 in Calm     92 % 0.0 in 0.0 W/m2 CLR
06:56 5.3 °F 4.1 °F 1019.2 in Calm     92 % 0.0 in 0.0 W/m2 CLR
07:01 5.3 °F 4.1 °F 1019.2 in Calm     92 % 0.0 in 0.0 W/m2 CLR
07:06 5.4 °F 4.2 °F 1019.2 in Calm     92 % 0.0 in 0.0 W/m2 CLR
07:11 5.4 °F 4.2 °F 1019.2 in Calm     92 % 0.0 in 0.0 W/m2 CLR
07:16 5.4 °F 4.2 °F 1018.8 in Calm     92 % 0.0 in 0.0 W/m2 CLR
07:21 5.3 °F 4.1 °F 1018.8 in Calm     92 % 0.0 in 0.0 W/m2 CLR
07:22 5.3 °F 4.1 °F 1018.8 in Calm     92 % 0.0 in 0.0 W/m2 CLR
07:27 5.2 °F 4.1 °F 1018.8 in Calm     92 % 0.0 in 0.0 W/m2 CLR
07:32 5.2 °F 4.0 °F 1018.8 in Calm     92 % 0.0 in 0.0 W/m2 OVC
07:37 5.2 °F 4.1 °F 1019.2 in Calm     92 % 0.0 in 0.0 W/m2 OVC
07:42 5.3 °F 4.1 °F 1018.8 in Calm     92 % 0.0 in 0.0 W/m2 OVC
07:47 5.4 °F 4.2 °F 1018.8 in Calm     92 % 0.0 in 0.0 W/m2 OVC
07:52 5.4 °F 4.2 °F 1018.8 in Calm     92 % 0.0 in 0.0 W/m2 OVC
07:57 5.4 °F 4.2 °F 1018.8 in Calm     92 % 0.0 in 5.0 W/m2 OVC
08:02 5.3 °F 4.1 °F 1018.8 in Calm     92 % 0.0 in 7.0 W/m2 BKN
08:07 5.3 °F 4.1 °F 1019.2 in Calm     92 % 0.0 in 9.0 W/m2 BKN
08:12 5.4 °F 4.2 °F 1019.2 in Calm     92 % 0.0 in 11.0 W/m2 BKN
08:17 5.4 °F 4.2 °F 1019.2 in Calm     92 % 0.0 in 14.0 W/m2 BKN
08:22 5.4 °F 4.2 °F 1019.5 in Calm     92 % 0.0 in 16.0 W/m2 BKN
08:27 5.4 °F 4.2 °F 1019.5 in Calm     92 % 0.0 in 19.0 W/m2 BKN
08:32 5.5 °F 4.3 °F 1019.5 in Calm     92 % 0.0 in 23.0 W/m2 BKN
08:37 5.6 °F 4.3 °F 1019.5 in Calm     92 % 0.0 in 25.0 W/m2 BKN
08:42 5.6 °F 4.3 °F 1019.5 in NNE 3.7 mph 3.7 mph 92 % 0.0 in 28.0 W/m2 BKN
08:47 5.5 °F 4.3 °F 1019.2 in Calm     92 % 0.0 in 32.0 W/m2 BKN
08:52 5.5 °F 4.3 °F 1019.2 in Calm     92 % 0.0 in 35.0 W/m2 BKN
08:57 5.6 °F 4.4 °F 1019.2 in Calm     92 % 0.0 in 40.0 W/m2 BKN
09:02 5.7 °F 4.4 °F 1019.5 in SSW 3.7 mph 3.7 mph 92 % 0.0 in 46.0 W/m2 BKN
09:07 5.7 °F 4.4 °F 1019.2 in Calm     92 % 0.0 in 49.0 W/m2 BKN
09:12 5.7 °F 4.5 °F 1019.2 in Calm     92 % 0.0 in 54.0 W/m2 SCT
09:17 5.8 °F 4.6 °F 1019.5 in Calm     92 % 0.0 in 60.0 W/m2 SCT
09:22 5.9 °F 4.7 °F 1019.5 in Calm     92 % 0.0 in 63.0 W/m2 SCT
09:27 6.1 °F 4.8 °F 1019.2 in Calm     92 % 0.0 in 69.0 W/m2 SCT
09:32 6.3 °F 5.1 °F 1019.2 in Calm     92 % 0.0 in 72.0 W/m2 FEW
09:37 6.5 °F 5.3 °F 1019.2 in Calm     92 % 0.0 in 77.0 W/m2 FEW
09:42 6.6 °F 5.3 °F 1019.2 in Calm     92 % 0.0 in 79.0 W/m2 FEW
09:47 6.6 °F 5.2 °F 1019.2 in Calm     91 % 0.0 in 83.0 W/m2 FEW
09:52 6.6 °F 5.2 °F 1019.2 in Calm     91 % 0.0 in 86.0 W/m2 FEW
09:57 6.6 °F 5.2 °F 1019.2 in Calm     91 % 0.0 in 88.0 W/m2 CLR
10:02 6.7 °F 5.3 °F 1018.8 in Calm     91 % 0.0 in 91.0 W/m2 CLR
10:07 6.8 °F 5.4 °F 1019.2 in Calm     91 % 0.0 in 95.0 W/m2 CLR
10:12 6.9 °F 5.5 °F 1019.2 in Calm     91 % 0.0 in 100.0 W/m2 CLR
10:17 7.0 °F 5.6 °F 1019.2 in Calm     91 % 0.0 in 107.0 W/m2 CLR
10:18 7.1 °F 5.7 °F 1019.2 in Calm     91 % 0.0 in 107.0 W/m2 CLR
10:22 7.1 °F 5.7 °F 1019.2 in Calm     91 % 0.0 in 113.0 W/m2 CLR
10:27 7.2 °F 5.8 °F 1019.2 in Calm     91 % 0.0 in 121.0 W/m2 CLR
10:32 7.4 °F 6.1 °F 1019.2 in Calm     91 % 0.0 in 128.0 W/m2 CLR
10:37 7.6 °F 6.0 °F 1018.8 in Calm     90 % 0.0 in 134.0 W/m2 CLR
10:42 7.6 °F 6.1 °F 1018.8 in Calm     90 % 0.0 in 141.0 W/m2 CLR
10:47 7.7 °F 6.2 °F 1018.8 in Calm     90 % 0.0 in 146.0 W/m2 CLR
10:52 7.8 °F 6.1 °F 1019.2 in Calm     89 % 0.0 in 149.0 W/m2 CLR
10:57 7.9 °F 6.2 °F 1018.8 in Calm     89 % 0.0 in 155.0 W/m2 CLR
11:03 8.1 °F 6.4 °F 1018.5 in Calm     89 % 0.0 in 158.0 W/m2 CLR
11:08 8.2 °F 6.3 °F 1018.5 in Calm     88 % 0.0 in 162.0 W/m2 CLR
11:13 8.3 °F 6.4 °F 1018.5 in Calm     88 % 0.0 in 165.0 W/m2 CLR
11:18 8.4 °F 6.4 °F 1018.5 in Calm     87 % 0.0 in 171.0 W/m2 CLR
11:23 8.6 °F 6.5 °F 1018.5 in Calm     87 % 0.0 in 181.0 W/m2 CLR
11:28 8.7 °F 6.6 °F 1018.5 in Calm     87 % 0.0 in 195.0 W/m2 CLR
11:33 8.8 °F 6.6 °F 1018.5 in Calm     86 % 0.0 in 216.0 W/m2 CLR
11:38 9.1 °F 6.9 °F 1018.5 in Calm     86 % 0.0 in 227.0 W/m2 CLR
11:43 9.3 °F 6.9 °F 1018.5 in Calm     85 % 0.0 in 234.0 W/m2 CLR
11:48 9.7 °F 7.0 °F 1018.5 in Calm     83 % 0.0 in 236.0 W/m2 CLR
11:53 10.1 °F 7.1 °F 1018.5 in Calm     82 % 0.0 in 232.0 W/m2 CLR
11:58 10.2 °F 7.2 °F 1018.5 in Calm     82 % 0.0 in 221.0 W/m2 CLR
12:03 10.4 °F 7.4 °F 1018.5 in Calm     82 % 0.0 in 214.0 W/m2 CLR
12:08 10.6 °F 7.4 °F 1018.5 in Calm     81 % 0.0 in 209.0 W/m2 CLR
12:13 10.8 °F 7.4 °F 1018.5 in Calm     80 % 0.0 in 199.0 W/m2 CLR
12:18 11.0 °F 7.5 °F 1018.5 in Calm     79 % 0.0 in 188.0 W/m2 CLR
12:23 11.2 °F 7.4 °F 1018.5 in Calm     78 % 0.0 in 192.0 W/m2 CLR
12:28 11.4 °F 7.5 °F 1018.5 in Calm     77 % 0.0 in 202.0 W/m2 CLR
12:33 11.6 °F 7.7 °F 1018.5 in Calm     77 % 0.0 in 218.0 W/m2 CLR
12:38 11.7 °F 7.8 °F 1018.2 in Calm     77 % 0.0 in 230.0 W/m2 CLR
12:43 11.8 °F 7.7 °F 1018.2 in Calm     76 % 0.0 in 230.0 W/m2 CLR
12:48 11.9 °F 7.6 °F 1018.2 in Calm     75 % 0.0 in 227.0 W/m2 CLR
12:53 11.9 °F 7.2 °F 1018.2 in ENE 5.6 mph 5.6 mph 73 % 0.0 in 234.0 W/m2 CLR
12:58 11.9 °F 7.2 °F 1017.8 in Calm     73 % 0.0 in 230.0 W/m2 CLR
13:03 12.0 °F 7.5 °F 1017.8 in Calm     74 % 0.0 in 234.0 W/m2 CLR
13:08 12.1 °F 7.4 °F 1017.8 in Calm     73 % 0.0 in 239.0 W/m2 CLR
13:13 12.2 °F 7.7 °F 1017.8 in Calm     74 % 0.0 in 253.0 W/m2 CLR
13:18 12.3 °F 7.6 °F 1017.8 in ENE 4.8 mph 4.8 mph 73 % 0.0 in 265.0 W/m2 CLR
13:23 12.3 °F 7.6 °F 1017.5 in ENE 5.6 mph 5.6 mph 73 % 0.0 in 276.0 W/m2 CLR
13:28 12.4 °F 7.9 °F 1017.5 in Calm     74 % 0.0 in 290.0 W/m2 CLR
13:33 12.6 °F 8.1 °F 1017.5 in ENE 7.4 mph 7.4 mph 74 % 0.0 in 276.0 W/m2 CLR
13:38 12.7 °F 7.7 °F 1017.2 in NE 5.6 mph 5.6 mph 72 % 0.0 in 258.0 W/m2 CLR
13:43 12.8 °F 8.1 °F 1017.2 in ENE 5.6 mph 5.6 mph 73 % 0.0 in 243.0 W/m2 CLR
13:48 12.8 °F 8.3 °F 1016.8 in ENE 9.3 mph 9.3 mph 74 % 0.0 in 241.0 W/m2 CLR
13:53 12.8 °F 8.1 °F 1016.8 in ENE 5.6 mph 5.6 mph 73 % 0.0 in 251.0 W/m2 CLR
13:58 12.8 °F 8.1 °F 1016.8 in ENE 5.6 mph   73 % 0.0 in 276.0 W/m2 CLR
14:03 12.8 °F 8.3 °F 1016.5 in ENE 5.6 mph 5.6 mph 74 % 0.0 in 294.0 W/m2 CLR
14:08 13.0 °F 8.3 °F 1016.5 in Calm     73 % 0.0 in 290.0 W/m2 CLR
14:13 13.1 °F 7.8 °F 1016.1 in Calm     70 % 0.0 in 281.0 W/m2 CLR
14:18 13.3 °F 8.1 °F 1016.1 in NE 5.6 mph 5.6 mph 71 % 0.0 in 279.0 W/m2 CLR
14:23 13.3 °F 8.0 °F 1016.1 in Calm     70 % 0.0 in 287.0 W/m2 CLR
14:28 13.4 °F 7.8 °F 1015.8 in Calm     69 % 0.0 in 325.0 W/m2 CLR
14:33 13.6 °F 7.8 °F 1015.8 in Calm     68 % 0.0 in 466.0 W/m2 CLR
14:38 13.9 °F 8.1 °F 1015.8 in Calm     68 % 0.0 in 489.0 W/m2 CLR
14:43 14.2 °F 8.3 °F 1015.5 in Calm     68 % 0.0 in 345.0 W/m2 CLR
14:48 14.4 °F 8.3 °F 1015.5 in NE 7.4 mph 7.4 mph 67 % 0.0 in 383.0 W/m2 CLR
14:53 14.4 °F 8.4 °F 1015.5 in NE 6.4 mph 6.4 mph 67 % 0.0 in 387.0 W/m2 CLR
14:58 14.6 °F 8.3 °F 1015.5 in Calm     66 % 0.0 in 359.0 W/m2 CLR
15:03 14.7 °F 8.2 °F 1015.1 in NE 7.4 mph 7.4 mph 65 % 0.0 in 318.0 W/m2 CLR
15:08 14.7 °F 7.9 °F 1015.1 in Calm     64 % 0.0 in 316.0 W/m2 CLR
15:13 14.6 °F 7.6 °F 1015.1 in NE 7.4 mph 7.4 mph 63 % 0.0 in 315.0 W/m2 CLR
15:18 14.6 °F 7.8 °F 1015.1 in NE 8.0 mph 8.0 mph 64 % 0.0 in 329.0 W/m2 CLR
15:23 14.6 °F 7.7 °F 1014.8 in NE 9.7 mph 9.7 mph 63 % 0.0 in 294.0 W/m2 CLR
15:28 14.6 °F 7.3 °F 1014.8 in NE 9.3 mph 9.3 mph 62 % 0.0 in 338.0 W/m2 CLR
15:33 14.6 °F 7.6 °F 1014.8 in ENE 7.4 mph 7.4 mph 63 % 0.0 in 489.0 W/m2 CLR
15:38 14.8 °F 8.1 °F 1014.8 in ENE 9.3 mph 9.3 mph 64 % 0.0 in 564.0 W/m2 CLR
15:43 15.1 °F 8.1 °F 1014.8 in NE 8.0 mph 8.0 mph 63 % 0.0 in 512.0 W/m2 CLR
15:48 15.3 °F 8.5 °F 1014.4 in NE 5.6 mph 5.6 mph 64 % 0.0 in 283.0 W/m2 CLR
15:53 15.3 °F 8.1 °F 1014.4 in NE 5.6 mph 5.6 mph 62 % 0.0 in 199.0 W/m2 CLR
15:58 15.2 °F 8.2 °F 1014.4 in NE 8.0 mph 8.0 mph 63 % 0.0 in 190.0 W/m2 CLR
16:03 15.1 °F 7.8 °F 1014.4 in ENE 1.6 mph 1.6 mph 62 % 0.0 in 234.0 W/m2 CLR
16:08 14.8 °F 7.6 °F 1014.8 in ENE 7.4 mph 7.4 mph 62 % 0.0 in 193.0 W/m2 CLR
16:13 14.8 °F 8.3 °F 1014.4 in ENE 3.7 mph 3.7 mph 65 % 0.0 in 223.0 W/m2 CLR
16:18 14.7 °F 8.0 °F 1014.8 in East 3.7 mph   64 % 0.0 in 288.0 W/m2 CLR
16:23 14.8 °F 8.3 °F 1014.8 in ENE 7.4 mph 7.4 mph 65 % 0.0 in 380.0 W/m2 CLR
16:28 14.9 °F 8.4 °F 1014.4 in NE 5.6 mph 5.6 mph 65 % 0.0 in 406.0 W/m2 CLR
16:34 14.9 °F 8.4 °F 1014.8 in Calm     65 % 0.0 in 278.0 W/m2 CLR
16:39 14.9 °F 8.2 °F 1014.8 in Calm     64 % 0.0 in 221.0 W/m2 CLR
16:44 14.9 °F 8.4 °F 1014.4 in Calm     65 % 0.0 in 214.0 W/m2 CLR
16:49 14.9 °F 8.7 °F 1014.4 in Calm     66 % 0.0 in 209.0 W/m2 CLR
16:54 15.0 °F 8.7 °F 1014.4 in NE 6.4 mph 6.4 mph 66 % 0.0 in 155.0 W/m2 CLR
16:59 14.9 °F 8.4 °F 1014.4 in NNE 5.6 mph 5.6 mph 65 % 0.0 in 146.0 W/m2 CLR
17:04 14.8 °F 8.8 °F 1014.1 in NE 7.4 mph 7.4 mph 67 % 0.0 in 160.0 W/m2 CLR
17:09 14.7 °F 8.9 °F 1014.1 in NE 6.4 mph 6.4 mph 68 % 0.0 in 141.0 W/m2 CLR
17:14 14.7 °F 8.9 °F 1014.1 in NNE 5.6 mph 5.6 mph 68 % 0.0 in 146.0 W/m2 CLR
17:19 14.7 °F 8.8 °F 1014.1 in ENE 5.6 mph 5.6 mph 68 % 0.0 in 127.0 W/m2 CLR
17:24 14.6 °F 8.9 °F 1014.1 in East 8.0 mph 8.0 mph 69 % 0.0 in 132.0 W/m2 CLR
17:29 14.4 °F 9.2 °F 1014.1 in NE 9.3 mph 9.3 mph 71 % 0.0 in 142.0 W/m2 CLR
17:34 14.3 °F 9.3 °F 1014.1 in NE 9.3 mph 9.3 mph 72 % 0.0 in 121.0 W/m2 CLR
17:39 14.2 °F 9.4 °F 1014.1 in NE 7.4 mph 7.4 mph 73 % 0.0 in 123.0 W/m2 CLR
17:44 14.1 °F 9.5 °F 1014.1 in North 6.4 mph 6.4 mph 74 % 0.0 in 130.0 W/m2 CLR
17:49 14.0 °F 9.6 °F 1014.4 in North 5.6 mph 5.6 mph 75 % 0.0 in 123.0 W/m2 CLR
17:54 13.9 °F 9.7 °F 1014.4 in Calm     76 % 0.0 in 104.0 W/m2 CLR
17:59 13.9 °F 9.7 °F 1014.4 in Calm     76 % 0.0 in 81.0 W/m2 FEW
18:04 13.8 °F 9.6 °F 1014.4 in Calm     76 % 0.0 in 72.0 W/m2 FEW
18:09 13.7 °F 9.5 °F 1014.4 in Calm     76 % 0.0 in 63.0 W/m2 SCT
18:14 13.5 °F 9.6 °F 1014.1 in NNE 5.6 mph 5.6 mph 77 % 0.0 in 46.0 W/m2 SCT
18:19 13.3 °F 9.4 °F 1014.4 in Calm     77 % 0.0 in 37.0 W/m2 BKN
18:24 13.2 °F 9.4 °F 1014.1 in Calm   0.2 mph 78 % 0.0 in 28.0 W/m2 BKN
18:29 13.1 °F 9.3 °F 1014.1 in North 5.6 mph 5.6 mph 78 % 0.0 in 21.0 W/m2 BKN
18:34 12.9 °F 9.3 °F 1014.4 in North 3.7 mph   79 % 0.0 in 11.0 W/m2 BKN
18:39 12.7 °F 9.2 °F 1014.4 in Calm     79 % 0.0 in 5.0 W/m2 OVC
18:44 12.6 °F 9.1 °F 1014.1 in Calm     79 % 0.0 in 0.0 W/m2 OVC
18:49 12.5 °F 9.2 °F 1014.1 in Calm     80 % 0.0 in 0.0 W/m2 OVC
18:54 12.3 °F 9.0 °F 1014.4 in Calm     80 % 0.0 in 0.0 W/m2 CLR
18:59 12.3 °F 8.9 °F 1014.4 in Calm     80 % 0.0 in 0.0 W/m2 CLR
19:04 12.1 °F 8.9 °F 1014.8 in Calm     81 % 0.0 in 0.0 W/m2 CLR
19:07 12.1 °F 8.9 °F 1014.8 in Calm     81 % 0.0 in 0.0 W/m2 CLR
19:12 11.9 °F 8.8 °F 1014.8 in Calm     81 % 0.0 in 0.0 W/m2 CLR
19:17 11.8 °F 8.8 °F 1014.8 in Calm     82 % 0.0 in 0.0 W/m2 CLR
19:22 11.7 °F 8.7 °F 1014.8 in Calm     82 % 0.0 in 0.0 W/m2 CLR
19:27 11.6 °F 8.8 °F 1014.8 in Calm     83 % 0.0 in 0.0 W/m2 CLR
19:32 11.6 °F 8.8 °F 1014.8 in Calm     83 % 0.0 in 0.0 W/m2 CLR
19:37 11.4 °F 8.7 °F 1014.8 in Calm     83 % 0.0 in 0.0 W/m2 CLR
19:42 11.3 °F 8.7 °F 1014.8 in Calm     84 % 0.0 in 0.0 W/m2 CLR
19:47 11.3 °F 8.7 °F 1014.8 in Calm     84 % 0.0 in 0.0 W/m2 CLR
19:52 11.2 °F 8.6 °F 1015.1 in Calm     84 % 0.0 in 0.0 W/m2 CLR
19:57 11.2 °F 8.6 °F 1014.8 in Calm     84 % 0.0 in 0.0 W/m2 CLR
20:02 11.2 °F 8.6 °F 1015.1 in Calm     84 % 0.0 in 0.0 W/m2 CLR
20:07 11.2 °F 8.7 °F 1015.1 in Calm     85 % 0.0 in 0.0 W/m2 CLR
20:12 11.1 °F 8.7 °F 1014.8 in Calm     85 % 0.0 in 0.0 W/m2 CLR
20:17 11.1 °F 8.7 °F 1015.1 in Calm     85 % 0.0 in 0.0 W/m2 CLR
20:22 11.1 °F 8.6 °F 1015.1 in Calm     85 % 0.0 in 0.0 W/m2 CLR
20:27 11.0 °F 8.6 °F 1014.8 in Calm     85 % 0.0 in 0.0 W/m2 CLR
20:32 11.0 °F 8.7 °F 1014.8 in Calm     86 % 0.0 in 0.0 W/m2 CLR
20:37 10.9 °F 8.7 °F 1014.8 in Calm     86 % 0.0 in 0.0 W/m2 CLR
20:42 10.9 °F 8.6 °F 1015.1 in Calm     86 % 0.0 in 0.0 W/m2 CLR
20:47 10.8 °F 8.8 °F 1015.1 in Calm     87 % 0.0 in 0.0 W/m2 CLR
20:52 10.8 °F 8.8 °F 1015.1 in Calm     87 % 0.0 in 0.0 W/m2 CLR
20:57 10.8 °F 8.7 °F 1015.1 in Calm     87 % 0.0 in 0.0 W/m2 CLR
21:02 10.7 °F 8.7 °F 1015.5 in Calm     87 % 0.0 in 0.0 W/m2 CLR
21:07 10.7 °F 8.8 °F 1015.1 in Calm     88 % 0.0 in 0.0 W/m2 CLR
21:12 10.6 °F 8.7 °F 1015.1 in Calm     88 % 0.0 in 0.0 W/m2 CLR
21:17 10.7 °F 8.8 °F 1015.5 in Calm     88 % 0.0 in 0.0 W/m2 CLR
21:22 10.6 °F 8.7 °F 1015.1 in Calm     88 % 0.0 in 0.0 W/m2 CLR
21:27 10.6 °F 8.7 °F 1015.1 in Calm     88 % 0.0 in 0.0 W/m2 CLR
21:32 10.5 °F 8.6 °F 1015.1 in Calm     88 % 0.0 in 0.0 W/m2 CLR
21:37 10.4 °F 8.7 °F 1015.1 in Calm     89 % 0.0 in 0.0 W/m2 CLR
21:42 10.4 °F 8.7 °F 1015.1 in Calm     89 % 0.0 in 0.0 W/m2 CLR
21:47 10.4 °F 8.7 °F 1015.1 in Calm     89 % 0.0 in 0.0 W/m2 CLR
21:52 10.4 °F 8.7 °F 1015.1 in Calm     89 % 0.0 in 0.0 W/m2 CLR
21:57 10.3 °F 8.6 °F 1015.1 in Calm     89 % 0.0 in 0.0 W/m2 CLR
22:02 10.2 °F 8.5 °F 1014.8 in Calm     89 % 0.0 in 0.0 W/m2 CLR
22:07 10.1 °F 8.4 °F 1014.8 in Calm     89 % 0.0 in 0.0 W/m2 CLR
22:12 10.1 °F 8.3 °F 1014.8 in Calm     89 % 0.0 in 0.0 W/m2 CLR
22:17 10.0 °F 8.4 °F 1014.8 in Calm     90 % 0.0 in 0.0 W/m2 CLR
22:22 9.9 °F 8.4 °F 1014.8 in Calm     90 % 0.0 in 0.0 W/m2 CLR
22:27 9.9 °F 8.4 °F 1015.1 in Calm     90 % 0.0 in 0.0 W/m2 CLR
22:32 9.9 °F 8.3 °F 1015.1 in Calm     90 % 0.0 in 0.0 W/m2 CLR
22:37 9.9 °F 8.3 °F 1015.1 in Calm     90 % 0.0 in 0.0 W/m2 CLR
22:42 9.8 °F 8.3 °F 1014.8 in Calm     90 % 0.0 in 0.0 W/m2 CLR
22:47 9.7 °F 8.2 °F 1014.8 in Calm     90 % 0.0 in 0.0 W/m2 CLR
22:52 9.6 °F 8.0 °F 1014.8 in Calm     90 % 0.0 in 0.0 W/m2 CLR
22:57 9.5 °F 7.9 °F 1014.8 in Calm     90 % 0.0 in 0.0 W/m2 CLR
23:03 9.4 °F 7.9 °F 1014.8 in Calm     90 % 0.0 in 0.0 W/m2 CLR
23:08 9.4 °F 7.8 °F 1014.8 in Calm     90 % 0.0 in 0.0 W/m2 CLR
23:13 9.3 °F 7.8 °F 1014.8 in Calm     90 % 0.0 in 0.0 W/m2 CLR
23:18 9.2 °F 7.7 °F 1014.8 in Calm     90 % 0.0 in 0.0 W/m2 CLR
23:23 9.2 °F 7.8 °F 1015.1 in West 1.9 mph   91 % 0.0 in 0.0 W/m2 CLR
23:28 9.2 °F 7.8 °F 1015.1 in Calm     91 % 0.0 in 0.0 W/m2 CLR
23:33 9.1 °F 7.6 °F 1015.1 in Calm     90 % 0.0 in 0.0 W/m2 CLR
23:38 8.9 °F 7.3 °F 1015.1 in Calm     90 % 0.0 in 0.0 W/m2 CLR
23:43 8.8 °F 7.4 °F 1015.1 in Calm     91 % 0.0 in 0.0 W/m2 CLR
23:48 8.7 °F 7.3 °F 1015.1 in Calm     91 % 0.0 in 0.0 W/m2 CLR
23:53 8.7 °F 7.3 °F 1015.1 in Calm     91 % 0.0 in 0.0 W/m2 CLR
23:58 8.6 °F 7.2 °F 1015.1 in Calm     91 % 0.0 in 0.0 W/m2 CLR
Lo Temps de Massalio
Compliments of Weather Underground - 1.25 mb